Time;durP1;ratioP1;P1;durP2;ratioP2;P2;SDS_P1;SDS_P2;PMS_P1;PMS_P2;Temp;Humidity;BMP_temperature;BMP_pressure;BME280_temperature;BME280_humidity;BME280_pressure;Samples;Min_cycle;Max_cycle;Signal;HPM_P1;HPM_P2
2021/07/19 00:03:40;;;;;;;6.30;2.50;;;;;;;;;;8346308;28;20363;-72
2021/07/19 00:07:45;;;;;;;7.85;2.25;;;;;;;;;;8309193;28;20463;-73
2021/07/19 00:11:52;;;;;;;8.05;2.22;;;;;;;;;;8307819;28;20040;-72
2021/07/19 00:15:57;;;;;;;10.30;1.70;;;;;;;;;;8326397;28;20465;-73
2021/07/19 00:20:06;;;;;;;3.00;1.98;;;;;;;;;;8324826;28;20346;-71
2021/07/19 00:24:11;;;;;;;12.57;2.22;;;;;;;;;;8324066;28;20048;-72
2021/07/19 00:28:16;;;;;;;3.55;1.80;;;;;;;;;;8326217;28;20362;-72
2021/07/19 00:32:20;;;;;;;4.50;2.03;;;;;;;;;;8307758;28;20482;-72
2021/07/19 00:36:28;;;;;;;;;;;;;;;;;;8308294;28;20051;-72
2021/07/19 00:40:36;;;;;;;7.72;1.98;;;;;;;;;;8324308;28;20246;-72
2021/07/19 00:44:42;;;;;;;7.55;1.80;;;;;;;;;;8322391;28;20487;-72
2021/07/19 00:48:49;;;;;;;5.53;1.88;;;;;;;;;;8306075;28;20451;-72
2021/07/19 00:52:57;;;;;;;2.87;1.63;;;;;;;;;;8306369;28;20066;-72
2021/07/19 00:57:06;;;;;;;4.80;1.85;;;;;;;;;;8322685;28;20969;-71
2021/07/19 01:01:12;;;;;;;6.45;1.98;;;;;;;;;;8307022;28;20328;-73
2021/07/19 01:05:19;;;;;;;3.67;1.80;;;;;;;;;;8307293;28;20459;-72
2021/07/19 01:09:26;;;;;;;5.95;2.05;;;;;;;;;;8323902;28;20074;-72
2021/07/19 01:13:31;;;;;;;4.43;1.92;;;;;;;;;;8323449;28;20473;-72
2021/07/19 01:17:38;;;;;;;12.15;2.65;;;;;;;;;;8322762;28;20473;-72
2021/07/19 01:22:20;;;;;;;4.43;1.70;;;;;;;;;;8304837;28;20501;-73
2021/07/19 01:26:37;;;;;;;6.05;2.42;;;;;;;;;;8321681;28;20485;-72
2021/07/19 01:30:43;;;;;;;5.85;1.90;;;;;;;;;;8323606;28;20336;-73
2021/07/19 01:34:51;;;;;;;5.35;2.78;;;;;;;;;;8305661;28;20378;-72
2021/07/19 01:38:57;;;;;;;6.45;2.20;;;;;;;;;;8305940;28;20339;-72
2021/07/19 01:43:03;;;;;;;6.15;2.17;;;;;;;;;;8321195;28;20479;-72
2021/07/19 01:47:09;;;;;;;6.65;1.80;;;;;;;;;;8306569;28;20467;-72
2021/07/19 01:51:18;;;;;;;4.18;2.00;;;;;;;;;;8306901;28;20358;-73
2021/07/19 01:55:31;;;;;;;3.80;1.90;;;;;;;;;;8306689;28;20475;-73
2021/07/19 01:59:39;;;;;;;10.80;2.13;;;;;;;;;;8292125;28;20466;-72
2021/07/19 02:04:11;;;;;;;7.05;3.08;;;;;;;;;;8310449;28;20378;-72
2021/07/19 02:08:20;;;;;;;12.38;3.85;;;;;;;;;;8311653;28;20386;-72
2021/07/19 02:12:45;;;;;;;6.55;3.47;;;;;;;;;;8327937;28;20367;-72
2021/07/19 02:16:51;;;;;;;7.97;3.58;;;;;;;;;;8311591;28;20477;-72
2021/07/19 02:21:04;;;;;;;7.72;3.83;;;;;;;;;;8312118;28;20486;-72
2021/07/19 02:25:20;;;;;;;8.70;4.50;;;;;;;;;;8310191;28;20521;-73
2021/07/19 02:29:32;;;;;;;9.48;4.00;;;;;;;;;;8311847;28;20073;-73
2021/07/19 02:33:39;;;;;;;8.15;4.30;;;;;;;;;;8327067;28;20481;-72
2021/07/19 02:37:52;;;;;;;14.52;5.40;;;;;;;;;;8296439;28;20040;-73
2021/07/19 02:42:03;;;;;;;9.70;5.13;;;;;;;;;;8328667;28;20381;-73
2021/07/19 02:46:09;;;;;;;11.40;4.55;;;;;;;;;;8310199;28;20490;-73
2021/07/19 02:50:27;;;;;;;8.18;3.65;;;;;;;;;;8314139;28;20079;-72
2021/07/19 02:54:36;;;;;;;8.32;4.22;;;;;;;;;;8326715;28;20048;-73
2021/07/19 02:58:44;;;;;;;11.80;4.60;;;;;;;;;;8313016;28;20478;-72
2021/07/19 03:02:56;;;;;;;11.63;5.18;;;;;;;;;;8311370;28;20355;-73
2021/07/19 03:07:06;;;;;;;9.65;4.30;;;;;;;;;;8310407;28;20447;-73
2021/07/19 03:11:30;;;;;;;7.70;4.03;;;;;;;;;;8309415;28;20048;-73
2021/07/19 03:15:39;;;;;;;8.95;3.92;;;;;;;;;;8326254;28;20477;-73
2021/07/19 03:19:45;;;;;;;8.50;4.28;;;;;;;;;;8311208;28;20378;-73
2021/07/19 03:23:55;;;;;;;5.68;3.50;;;;;;;;;;8309467;28;20455;-72
2021/07/19 03:28:01;;;;;;;9.10;4.20;;;;;;;;;;8293535;28;20492;-72
2021/07/19 03:32:08;;;;;;;12.10;3.95;;;;;;;;;;8326829;28;20496;-74
2021/07/19 03:36:14;;;;;;;;;;;;;;;;;;8310604;28;20343;-73
2021/07/19 03:40:25;;;;;;;7.57;3.58;;;;;;;;;;8308774;28;20243;-73
2021/07/19 03:44:40;;;;;;;7.72;3.40;;;;;;;;;;8307751;28;20372;-73
2021/07/19 03:48:45;;;;;;;8.93;3.10;;;;;;;;;;8309511;28;20045;-73
2021/07/19 03:52:51;;;;;;;6.30;3.05;;;;;;;;;;8292249;28;20036;-73
2021/07/19 03:57:06;;;;;;;9.35;3.33;;;;;;;;;;8293125;28;20462;-73
2021/07/19 04:01:12;;;;;;;5.72;2.80;;;;;;;;;;8307959;28;20372;-73
2021/07/19 04:05:21;;;;;;;14.93;3.60;;;;;;;;;;8277002;28;20063;-72
2021/07/19 04:09:44;;;;;;;9.65;3.05;;;;;;;;;;8276760;28;20451;-73
2021/07/19 04:13:50;;;;;;;8.50;3.45;;;;;;;;;;8292740;28;20371;-72
2021/07/19 04:17:57;;;;;;;7.60;3.42;;;;;;;;;;8291270;28;20344;-73
2021/07/19 04:22:14;;;;;;;4.30;2.90;;;;;;;;;;8291651;28;20049;-72
2021/07/19 04:26:40;;;;;;;6.65;3.80;;;;;;;;;;8293413;28;20044;-73
2021/07/19 04:30:47;;;;;;;8.60;4.00;;;;;;;;;;8290548;28;20474;-72
2021/07/19 04:34:54;;;;;;;8.85;3.45;;;;;;;;;;8307805;28;20670;-73
2021/07/19 04:39:02;;;;;;;8.77;3.70;;;;;;;;;;8306835;28;20483;-73
2021/07/19 04:43:09;;;;;;;10.70;4.05;;;;;;;;;;8294725;28;20063;-72
2021/07/19 04:47:14;;;;;;;10.55;3.58;;;;;;;;;;8324257;28;20463;-73
2021/07/19 04:51:19;;;;;;;8.38;3.88;;;;;;;;;;8306708;28;20394;-72
2021/07/19 04:55:28;;;;;;;9.10;4.00;;;;;;;;;;8305921;28;20363;-72
2021/07/19 04:59:46;;;;;;;6.82;3.67;;;;;;;;;;8324299;28;20065;-72
2021/07/19 05:03:55;;;;;;;6.47;3.35;;;;;;;;;;8291397;28;20364;-72
2021/07/19 05:08:02;;;;;;;8.18;3.70;;;;;;;;;;8307150;28;20044;-73
2021/07/19 05:12:07;;;;;;;7.55;4.07;;;;;;;;;;8306159;28;20381;-73
2021/07/19 05:16:13;;;;;;;6.63;3.50;;;;;;;;;;8290098;28;20359;-72
2021/07/19 05:20:23;;;;;;;14.65;3.25;;;;;;;;;;8307015;28;20502;-72
2021/07/19 05:24:32;;;;;;;7.88;3.53;;;;;;;;;;8306571;28;20458;-73
2021/07/19 05:28:37;;;;;;;7.70;3.70;;;;;;;;;;8323785;28;20368;-72
2021/07/19 05:32:42;;;;;;;6.45;2.95;;;;;;;;;;8324765;28;20435;-72
2021/07/19 05:36:48;;;;;;;8.10;2.90;;;;;;;;;;8323754;28;20066;-71
2021/07/19 05:40:53;;;;;;;7.78;3.22;;;;;;;;;;8305760;28;20459;-73
2021/07/19 05:44:59;;;;;;;6.70;3.17;;;;;;;;;;8322903;28;20482;-72
2021/07/19 05:49:07;;;;;;;7.50;3.35;;;;;;;;;;8322956;28;20382;-73
2021/07/19 05:53:13;;;;;;;6.85;3.00;;;;;;;;;;8305155;28;20451;-72
2021/07/19 05:57:17;;;;;;;7.20;2.55;;;;;;;;;;8320905;28;20405;-72
2021/07/19 06:01:22;;;;;;;6.35;3.30;;;;;;;;;;8289176;28;20378;-73
2021/07/19 06:05:27;;;;;;;6.57;2.75;;;;;;;;;;8323070;28;20067;-72
2021/07/19 06:10:41;;;;;;;7.50;2.92;;;;;;;;;;8292565;27;20589;-73
2021/07/19 06:14:46;;;;;;;5.00;2.50;;;;;;;;;;8316327;28;20391;-73
2021/07/19 06:18:51;;;;;;;6.57;2.97;;;;;;;;;;8317362;28;20389;-72
2021/07/19 06:23:00;;;;;;;7.10;2.83;;;;;;;;;;8323818;28;20462;-73
2021/07/19 06:27:06;;;;;;;7.45;2.83;;;;;;;;;;8351516;28;20362;-73
2021/07/19 06:31:12;;;;;;;5.15;2.80;;;;;;;;;;8349496;28;20355;-73
2021/07/19 06:35:17;;;;;;;14.45;3.00;;;;;;;;;;8349297;28;20372;-73
2021/07/19 06:39:22;;;;;;;6.07;2.75;;;;;;;;;;8349544;28;20390;-73
2021/07/19 06:43:27;;;;;;;7.78;2.80;;;;;;;;;;8353939;28;20520;-73
2021/07/19 06:47:32;;;;;;;9.48;3.13;;;;;;;;;;8350500;28;20125;-73
2021/07/19 06:51:37;;;;;;;6.70;3.13;;;;;;;;;;8351509;28;20062;-72
2021/07/19 06:55:42;;;;;;;5.45;2.75;;;;;;;;;;8344689;28;20455;-72
2021/07/19 06:59:47;;;;;;;5.80;2.90;;;;;;;;;;8350497;28;20056;-72
2021/07/19 07:03:52;;;;;;;5.85;2.63;;;;;;;;;;8350532;28;20352;-72
2021/07/19 07:08:04;;;;;;;6.30;2.83;;;;;;;;;;8349550;28;20402;-72
2021/07/19 07:12:09;;;;;;;6.35;3.03;;;;;;;;;;8352041;28;20079;-72
2021/07/19 07:16:14;;;;;;;4.07;2.30;;;;;;;;;;8349291;28;20043;-72
2021/07/19 07:20:19;;;;;;;6.07;2.60;;;;;;;;;;8339050;28;20483;-72
2021/07/19 07:24:25;;;;;;;7.70;3.10;;;;;;;;;;8327862;28;20485;-73
2021/07/19 07:28:31;;;;;;;6.80;2.50;;;;;;;;;;8310835;28;20044;-73
2021/07/19 07:32:36;;;;;;;6.70;3.08;;;;;;;;;;8327945;28;20501;-73
2021/07/19 07:36:41;;;;;;;8.65;2.60;;;;;;;;;;8311169;28;20474;-76
2021/07/19 07:40:48;;;;;;;8.65;2.97;;;;;;;;;;8327002;28;20378;-73
2021/07/19 07:44:53;;;;;;;5.17;2.70;;;;;;;;;;8325752;28;20497;-72
2021/07/19 07:48:59;;;;;;;6.65;2.67;;;;;;;;;;8255609;28;20343;-73
2021/07/19 07:53:04;;;;;;;6.15;2.65;;;;;;;;;;8326753;28;20370;-72
2021/07/19 07:57:09;;;;;;;5.32;2.75;;;;;;;;;;8306452;28;20319;-72
2021/07/19 08:01:14;;;;;;;5.90;2.72;;;;;;;;;;8270570;28;20513;-72
2021/07/19 08:05:20;;;;;;;6.55;3.40;;;;;;;;;;8326254;28;20390;-73
2021/07/19 08:09:25;;;;;;;6.78;3.00;;;;;;;;;;8263946;28;20368;-72
2021/07/19 08:13:30;;;;;;;6.70;3.00;;;;;;;;;;8321382;28;20358;-72
2021/07/19 08:17:35;;;;;;;5.40;3.22;;;;;;;;;;8325963;28;20470;-73
2021/07/19 08:21:41;;;;;;;5.82;2.90;;;;;;;;;;8329376;28;20471;-73
2021/07/19 08:25:46;;;;;;;6.73;3.47;;;;;;;;;;7946792;28;10008136;-73
2021/07/19 08:29:52;;;;;;;7.07;3.10;;;;;;;;;;8306403;28;20347;-73
2021/07/19 08:34:00;;;;;;;9.70;3.50;;;;;;;;;;8307702;28;20356;-74
2021/07/19 08:38:04;;;;;;;4.65;3.05;;;;;;;;;;8325143;28;20044;-73
2021/07/19 08:42:16;;;;;;;3.88;2.83;;;;;;;;;;8326018;28;20462;-72
2021/07/19 08:46:20;;;;;;;4.38;3.20;;;;;;;;;;8325619;28;20377;-73
2021/07/19 08:50:28;;;;;;;5.93;3.63;;;;;;;;;;8324109;28;20332;-73
2021/07/19 08:54:35;;;;;;;5.72;3.47;;;;;;;;;;8325234;28;20063;-73
2021/07/19 08:58:39;;;;;;;8.68;3.35;;;;;;;;;;8324162;28;20474;-73
2021/07/19 09:02:44;;;;;;;4.72;2.80;;;;;;;;;;8322598;28;20483;-73
2021/07/19 09:06:51;;;;;;;4.80;3.13;;;;;;;;;;8322326;28;20466;-73
2021/07/19 09:10:54;;;;;;;4.43;2.85;;;;;;;;;;8322969;28;20378;-73
2021/07/19 09:14:59;;;;;;;4.80;3.05;;;;;;;;;;8304496;28;20360;-73
2021/07/19 09:19:12;;;;;;;5.05;3.28;;;;;;;;;;8323470;28;20060;-73
2021/07/19 09:23:27;;;;;;;5.20;2.85;;;;;;;;;;8251674;28;20509;-73
2021/07/19 09:27:32;;;;;;;4.93;3.47;;;;;;;;;;8265741;28;20052;-73
2021/07/19 09:31:45;;;;;;;4.43;2.90;;;;;;;;;;8289173;28;20475;-73
2021/07/19 09:35:53;;;;;;;5.90;3.30;;;;;;;;;;8289085;28;20460;-73
2021/07/19 09:39:58;;;;;;;7.93;3.63;;;;;;;;;;8285853;28;20498;-73
2021/07/19 09:44:08;;;;;;;8.82;3.05;;;;;;;;;;8289261;28;20351;-72
2021/07/19 09:48:13;;;;;;;7.97;3.78;;;;;;;;;;8291989;28;20055;-73
2021/07/19 09:52:18;;;;;;;7.55;3.22;;;;;;;;;;8298383;28;20479;-73
2021/07/19 09:56:23;;;;;;;5.60;3.38;;;;;;;;;;8321869;28;20474;-72
2021/07/19 10:00:30;;;;;;;7.65;3.30;;;;;;;;;;8322867;28;20044;-72
2021/07/19 10:04:46;;;;;;;5.57;2.97;;;;;;;;;;8306682;28;20485;-73
2021/07/19 10:08:58;;;;;;;5.35;2.83;;;;;;;;;;8321608;28;20372;-73
2021/07/19 10:13:05;;;;;;;5.28;2.95;;;;;;;;;;8325054;28;20451;-72
2021/07/19 10:17:10;;;;;;;6.05;3.45;;;;;;;;;;8250083;28;20074;-72
2021/07/19 10:21:15;;;;;;;4.60;2.72;;;;;;;;;;8320872;28;20397;-73
2021/07/19 10:25:20;;;;;;;4.88;2.92;;;;;;;;;;8322361;28;20074;-72
2021/07/19 10:29:26;;;;;;;6.40;3.20;;;;;;;;;;8301504;28;20352;-72
2021/07/19 10:33:32;;;;;;;6.32;3.97;;;;;;;;;;8285112;28;20471;-72
2021/07/19 10:40:09;;;;;;;6.60;4.10;;;;;;;;;;8144949;27;20893;-72
2021/07/19 10:44:18;;;;;;;11.43;3.70;;;;;;;;;;8158086;28;20478;-72
2021/07/19 10:48:32;;;;;;;8.60;4.05;;;;;;;;;;8181402;28;20380;-73
2021/07/19 10:52:40;;;;;;;5.70;3.80;;;;;;;;;;8285807;28;20494;-72
2021/07/19 10:56:47;;;;;;;5.75;3.60;;;;;;;;;;8285370;28;20562;-73
2021/07/19 11:00:53;;;;;;;7.68;4.47;;;;;;;;;;8284854;28;20052;-73
2021/07/19 11:04:58;;;;;;;8.23;3.75;;;;;;;;;;8280695;28;20487;-72
2021/07/19 11:09:09;;;;;;;6.68;4.38;;;;;;;;;;8317283;28;20409;-73
2021/07/19 11:13:32;;;;;;;9.25;4.13;;;;;;;;;;8330527;28;20406;-73
2021/07/19 11:17:37;;;;;;;6.57;3.65;;;;;;;;;;8300068;28;20509;-73
2021/07/19 11:21:45;;;;;;;10.60;4.60;;;;;;;;;;8317487;28;20381;-72
2021/07/19 11:25:52;;;;;;;7.35;4.70;;;;;;;;;;8304362;28;20041;-71
2021/07/19 11:30:25;;;;;;;6.78;4.32;;;;;;;;;;8285806;28;20451;-70
2021/07/19 11:34:34;;;;;;;7.82;4.22;;;;;;;;;;8279166;28;20522;-73
2021/07/19 11:38:39;;;;;;;8.13;4.57;;;;;;;;;;8283093;28;20052;-73
2021/07/19 11:42:45;;;;;;;7.40;4.60;;;;;;;;;;8282875;28;20045;-73
2021/07/19 11:46:51;;;;;;;9.07;4.43;;;;;;;;;;8283315;28;20044;-73
2021/07/19 11:50:58;;;;;;;8.95;6.15;;;;;;;;;;8262896;28;20471;-72
2021/07/19 11:55:04;;;;;;;;;;;;;;;;;;8242249;28;20483;-72
2021/07/19 11:59:09;;;;;;;13.73;5.78;;;;;;;;;;8262282;28;20227;-72
2021/07/19 12:03:18;;;;;;;7.65;5.13;;;;;;;;;;8261525;28;20467;-73
2021/07/19 12:07:27;;;;;;;8.93;5.03;;;;;;;;;;8260583;28;20455;-73
2021/07/19 12:11:35;;;;;;;11.50;5.57;;;;;;;;;;8261911;28;20071;-72
2021/07/19 12:15:52;;;;;;;10.85;5.13;;;;;;;;;;8259965;28;20037;-72
2021/07/19 12:20:00;;;;;;;9.90;5.75;;;;;;;;;;8263200;28;20383;-72
2021/07/19 12:24:08;;;;;;;8.00;5.78;;;;;;;;;;8259188;28;20367;-72
2021/07/19 12:28:16;;;;;;;8.18;5.65;;;;;;;;;;8243567;28;20427;-72
2021/07/19 12:32:21;;;;;;;11.50;5.68;;;;;;;;;;8260923;28;20037;-72
2021/07/19 12:36:26;;;;;;;10.43;6.75;;;;;;;;;;8259751;28;20395;-72
2021/07/19 12:40:31;;;;;;;11.77;7.28;;;;;;;;;;8259354;28;20395;-72
2021/07/19 12:44:37;;;;;;;14.65;6.90;;;;;;;;;;8219849;28;20333;-72
2021/07/19 12:48:49;;;;;;;9.95;5.40;;;;;;;;;;8292831;28;20338;-73
2021/07/19 12:52:55;;;;;;;14.77;6.05;;;;;;;;;;8294121;28;20467;-73
2021/07/19 12:57:01;;;;;;;11.15;5.38;;;;;;;;;;8309002;28;20471;-73
2021/07/19 13:01:13;;;;;;;10.00;5.00;;;;;;;;;;8289726;28;20468;-73
2021/07/19 13:05:19;;;;;;;8.13;4.03;;;;;;;;;;8291800;28;20430;-73
2021/07/19 13:09:27;;;;;;;7.72;4.40;;;;;;;;;;8294726;28;20465;-73
2021/07/19 13:13:32;;;;;;;6.93;4.78;;;;;;;;;;8294014;28;20375;-73
2021/07/19 13:17:38;;;;;;;6.28;4.10;;;;;;;;;;8290413;28;20110;-74
2021/07/19 13:21:44;;;;;;;9.27;4.32;;;;;;;;;;8291767;28;20479;-72
2021/07/19 13:25:50;;;;;;;9.63;3.67;;;;;;;;;;8273064;28;20398;-72
2021/07/19 13:29:58;;;;;;;8.43;3.85;;;;;;;;;;8278989;28;20049;-72
2021/07/19 13:34:02;;;;;;;6.90;3.78;;;;;;;;;;8258697;28;20060;-72
2021/07/19 13:38:08;;;;;;;12.27;3.97;;;;;;;;;;8231031;28;20456;-72
2021/07/19 13:42:13;;;;;;;7.90;4.15;;;;;;;;;;8258495;28;20456;-72
2021/07/19 13:46:19;;;;;;;11.45;4.20;;;;;;;;;;8272981;28;20347;-72
2021/07/19 13:50:25;;;;;;;7.90;3.75;;;;;;;;;;8273869;28;20368;-72
2021/07/19 13:54:30;;;;;;;7.18;4.20;;;;;;;;;;8258006;28;20063;-72
2021/07/19 13:58:38;;;;;;;22.40;5.75;;;;;;;;;;8257980;28;20467;-73
2021/07/19 14:02:46;;;;;;;10.57;4.57;;;;;;;;;;8207235;28;20402;-73
2021/07/19 14:06:51;;;;;;;;;;;;;;;;;;8257529;28;20334;-72
2021/07/19 14:10:56;;;;;;;10.98;4.60;;;;;;;;;;8257801;28;19920;-72
2021/07/19 14:15:01;;;;;;;7.30;4.43;;;;;;;;;;8258084;28;20067;-72
2021/07/19 14:19:07;;;;;;;8.52;4.50;;;;;;;;;;8257772;28;20045;-72
2021/07/19 14:23:13;;;;;;;11.25;4.75;;;;;;;;;;8256498;28;20456;-72
2021/07/19 14:27:19;;;;;;;7.30;4.75;;;;;;;;;;8258916;28;20424;-73
2021/07/19 14:31:29;;;;;;;11.18;4.72;;;;;;;;;;8258021;28;20365;-72
2021/07/19 14:35:34;;;;;;;9.10;4.53;;;;;;;;;;8260409;28;20459;-72
2021/07/19 14:39:39;;;;;;;8.70;4.38;;;;;;;;;;8142623;28;20344;-73
2021/07/19 14:43:45;;;;;;;6.75;4.20;;;;;;;;;;8243492;28;20367;-72
2021/07/19 14:47:51;;;;;;;8.80;4.37;;;;;;;;;;8257201;28;20447;-72
2021/07/19 14:51:57;;;;;;;8.02;4.20;;;;;;;;;;8259440;28;20463;-72
2021/07/19 14:56:04;;;;;;;9.25;4.40;;;;;;;;;;8258123;28;20382;-72
2021/07/19 15:00:12;;;;;;;8.95;4.40;;;;;;;;;;8273310;28;20402;-72
2021/07/19 15:04:18;;;;;;;7.20;4.45;;;;;;;;;;8256429;28;20483;-72
2021/07/19 15:08:23;;;;;;;9.85;4.70;;;;;;;;;;8271060;28;20459;-72
2021/07/19 15:12:28;;;;;;;6.13;3.65;;;;;;;;;;8258558;28;20060;-74
2021/07/19 15:16:33;;;;;;;8.00;3.85;;;;;;;;;;8255927;28;20448;-72
2021/07/19 15:20:39;;;;;;;8.98;4.10;;;;;;;;;;8256261;28;20385;-72
2021/07/19 15:24:44;;;;;;;7.63;3.92;;;;;;;;;;8259475;28;20471;-72
2021/07/19 15:28:49;;;;;;;11.40;4.00;;;;;;;;;;8262855;28;20504;-72
2021/07/19 15:32:54;;;;;;;8.82;4.25;;;;;;;;;;8261792;28;20388;-72
2021/07/19 15:37:00;;;;;;;10.60;3.65;;;;;;;;;;8277368;28;20475;-71
2021/07/19 15:41:06;;;;;;;13.15;4.30;;;;;;;;;;8276781;28;20056;-72
2021/07/19 15:45:12;;;;;;;9.27;4.40;;;;;;;;;;8276004;28;20367;-72
2021/07/19 15:49:17;;;;;;;8.45;4.50;;;;;;;;;;8264385;28;20352;-73
2021/07/19 15:53:22;;;;;;;9.73;4.18;;;;;;;;;;8275782;28;20451;-72
2021/07/19 15:57:28;;;;;;;7.35;4.00;;;;;;;;;;8261008;28;20391;-72
2021/07/19 16:01:33;;;;;;;10.48;4.43;;;;;;;;;;8260721;28;20068;-73
2021/07/19 16:05:39;;;;;;;6.90;3.88;;;;;;;;;;8259715;28;20447;-72
2021/07/19 16:09:45;;;;;;;8.55;4.00;;;;;;;;;;8261728;28;20071;-72
2021/07/19 16:13:51;;;;;;;8.52;3.72;;;;;;;;;;8259671;28;20079;-73
2021/07/19 16:17:56;;;;;;;8.65;3.83;;;;;;;;;;8261421;28;20362;-72
2021/07/19 16:22:02;;;;;;;7.75;4.00;;;;;;;;;;8263740;28;20489;-72
2021/07/19 16:26:09;;;;;;;5.45;4.03;;;;;;;;;;8255459;28;20040;-72
2021/07/19 16:30:15;;;;;;;10.70;4.53;;;;;;;;;;8263990;28;20350;-72
2021/07/19 16:34:23;;;;;;;8.75;4.20;;;;;;;;;;8210455;28;20383;-73
2021/07/19 16:38:29;;;;;;;8.10;4.38;;;;;;;;;;8265988;28;20368;-72
2021/07/19 16:42:35;;;;;;;12.77;4.30;;;;;;;;;;8289047;28;20056;-71
2021/07/19 16:46:40;;;;;;;11.30;4.32;;;;;;;;;;8288444;28;20045;-72
2021/07/19 16:50:46;;;;;;;7.57;4.47;;;;;;;;;;8271778;28;20360;-72
2021/07/19 16:54:51;;;;;;;8.48;4.10;;;;;;;;;;8288571;28;20355;-72
2021/07/19 16:58:56;;;;;;;9.35;4.22;;;;;;;;;;8289136;28;20583;-71
2021/07/19 17:03:02;;;;;;;6.30;3.97;;;;;;;;;;8271883;28;20454;-72
2021/07/19 17:07:08;;;;;;;7.15;4.60;;;;;;;;;;8287271;28;20507;-73
2021/07/19 17:11:16;;;;;;;6.95;3.78;;;;;;;;;;8288093;28;20363;-72
2021/07/19 17:15:21;;;;;;;8.40;4.25;;;;;;;;;;8273480;28;20472;-72
2021/07/19 17:19:28;;;;;;;13.02;4.38;;;;;;;;;;8256409;28;20475;-73
2021/07/19 17:23:33;;;;;;;6.97;3.78;;;;;;;;;;8256981;28;20045;-73
2021/07/19 17:27:41;;;;;;;6.60;4.03;;;;;;;;;;8258847;28;20071;-72
2021/07/19 17:31:46;;;;;;;9.18;4.32;;;;;;;;;;8258750;28;20467;-73
2021/07/19 17:35:52;;;;;;;13.50;4.95;;;;;;;;;;8258528;28;20471;-72
2021/07/19 17:39:55;;;;;;;13.38;4.75;;;;;;;;;;8258133;28;20407;-72
2021/07/19 17:44:01;;;;;;;7.78;4.53;;;;;;;;;;8257950;28;20432;-72
2021/07/19 17:48:06;;;;;;;6.55;3.67;;;;;;;;;;8256938;28;20067;-72
2021/07/19 17:52:14;;;;;;;6.50;3.72;;;;;;;;;;8255818;28;20448;-72
2021/07/19 17:56:18;;;;;;;8.85;3.95;;;;;;;;;;8240846;28;20414;-71
2021/07/19 18:00:24;;;;;;;7.13;4.00;;;;;;;;;;8257846;28;20379;-72
2021/07/19 18:04:29;;;;;;;12.85;3.80;;;;;;;;;;8256705;28;20472;-72
2021/07/19 18:08:40;;;;;;;9.32;3.78;;;;;;;;;;8256042;28;20037;-72
2021/07/19 18:12:46;;;;;;;11.45;3.90;;;;;;;;;;8249378;28;20340;-72
2021/07/19 18:16:50;;;;;;;7.40;3.97;;;;;;;;;;8253329;28;20459;-72
2021/07/19 18:20:57;;;;;;;14.65;4.28;;;;;;;;;;8256549;28;20407;-71
2021/07/19 18:25:09;;;;;;;9.50;3.83;;;;;;;;;;8259525;28;20478;-72
2021/07/19 18:33:47;;;;;;;7.70;3.67;;;;;;;;;;8222043;28;20456;-72
2021/07/19 18:37:53;;;;;;;10.18;3.65;;;;;;;;;;8223059;28;20406;-72
2021/07/19 18:41:58;;;;;;;7.57;3.25;;;;;;;;;;8255286;28;20368;-72
2021/07/19 18:46:04;;;;;;;6.93;3.33;;;;;;;;;;8234966;28;20371;-72
2021/07/19 18:50:10;;;;;;;5.20;2.78;;;;;;;;;;8256826;28;20368;-72
2021/07/19 18:54:21;;;;;;;4.88;2.75;;;;;;;;;;8254469;28;20364;-73
2021/07/19 18:58:27;;;;;;;5.93;3.30;;;;;;;;;;8257032;28;20505;-72
2021/07/19 19:02:32;;;;;;;7.35;2.63;;;;;;;;;;8263301;28;20483;-71
2021/07/19 19:06:39;;;;;;;5.60;3.25;;;;;;;;;;8244765;28;20348;-71
2021/07/19 19:10:44;;;;;;;4.68;3.17;;;;;;;;;;8260931;28;20383;-72
2021/07/19 19:15:19;;;;;;;6.38;3.38;;;;;;;;;;8179989;28;20178;-71
2021/07/19 19:19:23;;;;;;;10.00;3.15;;;;;;;;;;8178719;28;20388;-71
2021/07/19 19:23:28;;;;;;;6.95;3.22;;;;;;;;;;8176542;28;20452;-71
2021/07/19 19:27:35;;;;;;;6.65;2.92;;;;;;;;;;8176684;28;20472;-71
2021/07/19 19:31:40;;;;;;;6.22;3.58;;;;;;;;;;8176790;28;20068;-72
2021/07/19 19:35:47;;;;;;;7.33;3.40;;;;;;;;;;8160555;28;20370;-71
2021/07/19 19:39:59;;;;;;;8.98;2.85;;;;;;;;;;8191369;28;20073;-71
2021/07/19 19:44:05;;;;;;;9.37;3.93;;;;;;;;;;8177309;28;20476;-71
2021/07/19 19:48:12;;;;;;;9.65;3.55;;;;;;;;;;8175769;28;20393;-71
2021/07/19 19:52:20;;;;;;;7.03;3.75;;;;;;;;;;8223819;28;20498;-71
2021/07/19 19:56:26;;;;;;;12.38;3.78;;;;;;;;;;8278163;28;20353;-71
2021/07/19 20:00:34;;;;;;;8.80;4.35;;;;;;;;;;8276944;28;20368;-72
2021/07/19 20:04:40;;;;;;;7.90;3.45;;;;;;;;;;8293882;28;20045;-71
2021/07/19 20:08:46;;;;;;;9.27;4.07;;;;;;;;;;8292685;28;20048;-71
2021/07/19 20:12:50;;;;;;;8.02;4.35;;;;;;;;;;8293132;28;20395;-71
2021/07/19 20:16:56;;;;;;;6.93;3.72;;;;;;;;;;8249955;28;20459;-71
2021/07/19 20:21:01;;;;;;;9.90;3.72;;;;;;;;;;8259108;28;20079;-72
2021/07/19 20:25:09;;;;;;;8.80;4.07;;;;;;;;;;8260409;28;20040;-72
2021/07/19 20:29:16;;;;;;;10.20;4.05;;;;;;;;;;8260939;28;20045;-71
2021/07/19 20:33:25;;;;;;;6.82;3.33;;;;;;;;;;8260200;28;20487;-72
2021/07/19 20:37:31;;;;;;;8.13;3.47;;;;;;;;;;8259931;28;20487;-71
2021/07/19 20:41:37;;;;;;;7.05;3.88;;;;;;;;;;8242997;28;20064;-71
2021/07/19 20:45:43;;;;;;;10.63;3.67;;;;;;;;;;8260462;28;20535;-72
2021/07/19 20:49:48;;;;;;;8.10;4.35;;;;;;;;;;8275381;28;20497;-72
2021/07/19 20:54:21;;;;;;;12.50;4.20;;;;;;;;;;8259297;28;20361;-71
2021/07/19 20:58:30;;;;;;;8.43;4.35;;;;;;;;;;8257814;28;20391;-71
2021/07/19 21:02:38;;;;;;;11.13;4.45;;;;;;;;;;8271546;28;20585;-72
2021/07/19 21:06:45;;;;;;;10.93;4.32;;;;;;;;;;8274318;28;20061;-71
2021/07/19 21:10:51;;;;;;;14.93;4.63;;;;;;;;;;8275807;28;20067;-71
2021/07/19 21:14:56;;;;;;;10.82;4.28;;;;;;;;;;8259100;28;20419;-71
2021/07/19 21:19:01;;;;;;;16.60;4.90;;;;;;;;;;8273937;28;20355;-72
2021/07/19 21:23:06;;;;;;;9.80;4.40;;;;;;;;;;8257321;28;20471;-71
2021/07/19 21:27:14;;;;;;;12.27;4.40;;;;;;;;;;8258393;28;20359;-72
2021/07/19 21:31:19;;;;;;;10.45;4.53;;;;;;;;;;8258157;28;20057;-71
2021/07/19 21:35:36;;;;;;;8.27;4.60;;;;;;;;;;8258715;28;20472;-71
2021/07/19 21:39:47;;;;;;;9.85;4.07;;;;;;;;;;8256506;28;20106;-71
2021/07/19 21:43:59;;;;;;;12.18;4.63;;;;;;;;;;8257724;28;20490;-72
2021/07/19 21:48:03;;;;;;;8.60;4.68;;;;;;;;;;8256853;28;20460;-71
2021/07/19 21:52:09;;;;;;;12.43;5.10;;;;;;;;;;8257517;28;20371;-72
2021/07/19 21:56:14;;;;;;;14.32;5.63;;;;;;;;;;8273690;28;20486;-71
2021/07/19 22:00:27;;;;;;;11.60;5.72;;;;;;;;;;8256567;28;20380;-71
2021/07/19 22:04:36;;;;;;;11.32;5.72;;;;;;;;;;8257467;28;20346;-70
2021/07/19 22:08:42;;;;;;;15.00;5.97;;;;;;;;;;8258723;28;20585;-72
2021/07/19 22:12:48;;;;;;;12.23;6.20;;;;;;;;;;8256569;28;20479;-74
2021/07/19 22:16:54;;;;;;;12.63;6.35;;;;;;;;;;8271860;28;20470;-73
2021/07/19 22:20:59;;;;;;;10.60;4.88;;;;;;;;;;8256197;28;20062;-75
2021/07/19 22:25:26;;;;;;;9.48;5.18;;;;;;;;;;8239360;28;20356;-74
2021/07/19 22:29:33;;;;;;;12.75;5.28;;;;;;;;;;8252460;28;20115;-74
2021/07/19 22:33:39;;;;;;;8.68;4.82;;;;;;;;;;8234779;28;20483;-73
2021/07/19 22:37:46;;;;;;;12.25;5.72;;;;;;;;;;8220426;28;20487;-75
2021/07/19 22:41:51;;;;;;;11.32;5.47;;;;;;;;;;8236744;28;20487;-73
2021/07/19 22:45:58;;;;;;;10.80;5.53;;;;;;;;;;8250120;28;20449;-74
2021/07/19 22:50:20;;;;;;;14.95;5.50;;;;;;;;;;8237071;28;20365;-73
2021/07/19 22:54:26;;;;;;;12.90;5.70;;;;;;;;;;8236089;28;20380;-74
2021/07/19 22:58:32;;;;;;;9.30;5.00;;;;;;;;;;8251946;28;20483;-74
2021/07/19 23:02:37;;;;;;;10.98;5.43;;;;;;;;;;8235223;28;20491;-74
2021/07/19 23:06:43;;;;;;;9.32;5.40;;;;;;;;;;8236134;28;20460;-74
2021/07/19 23:10:50;;;;;;;13.18;5.70;;;;;;;;;;8236572;28;20068;-73
2021/07/19 23:15:06;;;;;;;9.55;5.35;;;;;;;;;;8236251;28;20415;-74
2021/07/19 23:19:12;;;;;;;;;;;;;;;;;;8257184;28;20045;-74
2021/07/19 23:23:18;;;;;;;10.13;5.22;;;;;;;;;;8257638;28;20251;-76
2021/07/19 23:27:23;;;;;;;11.82;5.57;;;;;;;;;;8257002;28;20484;-75
2021/07/19 23:31:28;;;;;;;17.98;5.93;;;;;;;;;;8271298;28;20476;-75
2021/07/19 23:35:34;;;;;;;9.18;5.55;;;;;;;;;;8254457;28;20356;-75
2021/07/19 23:39:42;;;;;;;;;;;;;;;;;;8271163;28;20053;-76
2021/07/19 23:43:49;;;;;;;10.70;5.90;;;;;;;;;;8270771;28;20362;-76
2021/07/19 23:48:15;;;;;;;10.05;5.00;;;;;;;;;;8263314;28;20474;-75
2021/07/19 23:52:24;;;;;;;15.00;6.53;;;;;;;;;;8275805;28;20371;-75
2021/07/19 23:56:29;;;;;;;12.85;5.97;;;;;;;;;;8263889;28;20467;-75
